Trotwood, Ohio
Current Conditions -  °F | °C
As of 2:56 PM on Thursday 29 Jan 2015 (Local Time) from KDAY Reporting Station
Haze Haze  
Wind Chill: 26°   Ceiling: 1100
Heat Index: 37°   Visibility: 6mi
Dew Point: 34°   Wind: 21mph
Humidity: 89%   Direction: 260°W
Pressure: 29.84"   Gusts: 36mph
Location:  39.8348°N, 84.2576°W
Report Text: KDAY 291956Z 26018G31KT 6SM BR OVC011 03/01 A2984 RMK AO2 PK WND 27034/1921 SLP113 T00280011
Loading
Personal Weather Stations






























Interactive Weather Map New forecast layout! Learn more

10-Day Weather Forecast

Advertisements
Track Severe Weather on mobile